Accueil
METAR-TAF:

METAR-TAF

Aéroports :

Aéroport Albert-Picardie

Albert, France

latitude: 49-58-21N, longitude: 002-41-29E, altitude: 111 m

Observation

Le bulletin a été fait il y a 28 minutes, à 07:30 UTC
Vent 8 kt de sud-ouest
Température 17°C
Humidité 88%
Pression 1023 hPa
Visibilité 10 km ou plus
Ciel couvert à une hauteur de 2500 ft

METAR: LFAQ 190730Z AUTO 22008KT 9999 OVC025 17/15 Q1023 NOSIG

Heure: 09:58 (07:58 UTC)

Prévision

Le bulletin a été fait il y a 2 heures et 58 minutes, à 05:00 UTC
Prévision valable du 19 à 06 UTC au 19 à 15 UTC
Vent 5 kt de sud/sud-ouest
Visibilité 10 km ou plus
Nuages fragmentés à une hauteur de 3000 ft
Temporairement
du 19 à 06 UTC au 19 à 08 UTC
Nuages fragmentés à une hauteur de 1300 ft
Evoluant progressivement
du 19 à 12 UTC au 19 à 15 UTC
Vent 10 kt de ouest

TAF: LFAQ 190500Z 1906/1915 20005KT 9999 BKN030 TEMPO 1906/1908 BKN013 BECMG 1912/1915 26010KT

Observations et prévisions météorologiques de plus de 4000 aéroports (messages METAR et TAF).

Les stations disponibles sont représentées par des disques jaunes et rouges sur la carte.

Passer la souris dessus pour voir le nom de la station.

Cliquer dessus pour voir les observations et prévisions météorologiques.

Pour changer de carte: cliquez sur les boutons verts avec une croix noire pour zoomer, sur le bouton vert avec un tiret pour effectuer un zoom arrière, ou sur les flèches vertes pour les cartes adjacentes.


METAR-TAF: